createdAt,value
2023-04-26T00:00:23.749Z,3.29
2023-04-26T00:01:55.114Z,3.36
2023-04-26T00:03:26.511Z,3.52
2023-04-26T00:04:57.995Z,3.40
2023-04-26T00:06:29.604Z,3.41
2023-04-26T00:08:00.787Z,3.38
2023-04-26T00:09:32.118Z,3.53
2023-04-26T00:11:03.521Z,3.85
2023-04-26T00:12:34.809Z,3.61
2023-04-26T00:14:06.117Z,3.56
2023-04-26T00:15:37.427Z,3.96
2023-04-26T00:17:09.251Z,3.68
2023-04-26T00:18:41.556Z,3.87
2023-04-26T00:20:12.779Z,4.33
2023-04-26T00:21:43.948Z,4.30
2023-04-26T00:23:15.212Z,3.93
2023-04-26T00:24:46.482Z,3.64
2023-04-26T00:26:18.058Z,3.87
2023-04-26T00:27:49.609Z,3.96
2023-04-26T00:29:20.912Z,4.24
2023-04-26T00:30:52.170Z,4.03
2023-04-26T00:32:23.713Z,4.31
2023-04-26T00:33:55.029Z,4.34
2023-04-26T00:35:26.507Z,4.39
2023-04-26T00:36:57.865Z,4.42
2023-04-26T00:38:29.054Z,4.36
2023-04-26T00:40:05.497Z,4.59
2023-04-26T00:41:36.965Z,4.64
2023-04-26T00:43:08.561Z,4.56
2023-04-26T00:44:39.968Z,4.31
2023-04-26T00:46:11.426Z,4.25
2023-04-26T00:47:42.876Z,4.63
2023-04-26T00:49:14.168Z,4.50
2023-04-26T00:50:45.599Z,4.67
2023-04-26T00:52:16.802Z,4.92
2023-04-26T00:53:48.413Z,4.75
2023-04-26T00:55:19.702Z,4.70
2023-04-26T00:56:51.452Z,4.58
2023-04-26T00:58:22.791Z,4.64
2023-04-26T00:59:54.268Z,4.82
2023-04-26T01:01:25.469Z,4.57
2023-04-26T01:02:57.166Z,4.49
2023-04-26T01:04:28.789Z,4.48
2023-04-26T01:05:59.987Z,4.60
2023-04-26T01:07:31.323Z,4.76
2023-04-26T01:09:02.546Z,4.50
2023-04-26T01:10:33.947Z,4.48
2023-04-26T01:12:05.290Z,4.64
2023-04-26T01:13:38.942Z,4.54
2023-04-26T01:15:10.621Z,4.39
2023-04-26T01:16:42.145Z,4.69
2023-04-26T01:18:13.530Z,5.01
2023-04-26T01:19:44.936Z,5.04
2023-04-26T01:21:16.456Z,4.52
2023-04-26T01:22:48.466Z,4.68
2023-04-26T01:24:19.936Z,4.96
2023-04-26T01:25:51.154Z,5.05
2023-04-26T01:27:22.544Z,4.81
2023-04-26T01:28:54.320Z,4.79
2023-04-26T01:30:30.843Z,5.56
2023-04-26T01:32:02.094Z,4.76
2023-04-26T01:33:33.395Z,5.16
2023-04-26T01:35:04.875Z,4.91
2023-04-26T01:36:36.468Z,5.23
2023-04-26T01:38:07.775Z,5.24
2023-04-26T01:39:39.268Z,5.38
2023-04-26T01:41:10.485Z,5.21
2023-04-26T01:42:41.918Z,5.48
2023-04-26T01:44:13.129Z,5.57
2023-04-26T01:45:44.659Z,5.56
2023-04-26T01:47:15.947Z,5.99
2023-04-26T01:48:52.758Z,6.01
2023-04-26T01:50:24.321Z,5.80
2023-04-26T01:51:55.714Z,5.68
2023-04-26T01:53:27.048Z,5.73
2023-04-26T01:54:58.571Z,5.66
2023-04-26T01:56:29.864Z,5.68
2023-04-26T01:58:01.102Z,5.67
2023-04-26T01:59:32.828Z,6.11
2023-04-26T02:01:04.622Z,6.00
2023-04-26T02:02:36.372Z,6.11
2023-04-26T02:04:09.430Z,5.68
2023-04-26T02:05:42.276Z,5.63
2023-04-26T02:07:14.337Z,5.77
2023-04-26T02:08:46.093Z,6.11
2023-04-26T02:10:17.529Z,5.87
2023-04-26T02:11:48.855Z,5.87
2023-04-26T02:13:20.321Z,5.77
2023-04-26T02:14:51.705Z,5.86
2023-04-26T02:16:23.285Z,6.00
2023-04-26T02:17:55.970Z,5.71
2023-04-26T02:19:27.289Z,5.71
2023-04-26T02:20:58.725Z,5.63
2023-04-26T02:22:29.953Z,5.75
2023-04-26T02:24:01.401Z,5.75
2023-04-26T02:25:32.947Z,5.91
2023-04-26T02:27:04.288Z,5.66
2023-04-26T02:28:35.706Z,5.73
2023-04-26T02:30:07.163Z,5.49
2023-04-26T02:31:38.870Z,5.96
2023-04-26T02:33:10.478Z,5.36
2023-04-26T02:34:41.739Z,5.72
2023-04-26T02:36:13.022Z,5.30
2023-04-26T02:37:44.388Z,5.95
2023-04-26T02:39:15.913Z,5.79
2023-04-26T02:40:47.370Z,6.26
2023-04-26T02:42:18.970Z,6.13
2023-04-26T02:43:50.316Z,5.94
2023-04-26T02:45:21.634Z,5.85
2023-04-26T02:46:53.257Z,5.68
2023-04-26T02:48:24.694Z,6.26
2023-04-26T02:49:56.139Z,5.78
2023-04-26T02:51:27.769Z,6.08
2023-04-26T02:52:59.227Z,6.00
2023-04-26T02:54:30.927Z,5.98
2023-04-26T02:56:02.332Z,5.94
2023-04-26T02:57:33.644Z,6.25
2023-04-26T02:59:05.048Z,6.09
2023-04-26T03:00:36.749Z,6.41
2023-04-26T03:02:08.506Z,6.23
2023-04-26T03:03:41.114Z,5.95
2023-04-26T03:05:12.807Z,5.94
2023-04-26T03:06:44.191Z,5.86
2023-04-26T03:08:15.554Z,5.93
2023-04-26T03:09:46.862Z,5.80
2023-04-26T03:11:18.102Z,6.10
2023-04-26T03:12:49.337Z,5.98
2023-04-26T03:14:20.618Z,5.73
2023-04-26T03:15:52.396Z,6.03
2023-04-26T03:17:24.007Z,5.80
2023-04-26T03:18:55.500Z,5.94
2023-04-26T03:20:26.952Z,5.72
2023-04-26T03:21:58.183Z,6.58
2023-04-26T03:23:29.483Z,5.92
2023-04-26T03:25:00.894Z,5.98
2023-04-26T03:26:32.485Z,5.92
2023-04-26T03:28:03.802Z,6.17
2023-04-26T03:29:35.196Z,5.93
2023-04-26T03:31:06.480Z,6.10
2023-04-26T03:32:37.960Z,6.33
2023-04-26T03:34:09.442Z,5.93
2023-04-26T03:35:40.779Z,6.38
2023-04-26T03:37:12.008Z,6.37
2023-04-26T03:38:43.270Z,6.59
2023-04-26T03:40:14.705Z,6.14
2023-04-26T03:41:51.439Z,6.33
2023-04-26T03:43:22.762Z,7.00
2023-04-26T03:44:54.091Z,6.85
2023-04-26T03:46:25.812Z,6.95
2023-04-26T03:47:57.458Z,7.29
2023-04-26T03:49:28.964Z,7.05
2023-04-26T03:51:00.387Z,7.38
2023-04-26T03:52:31.818Z,7.60
2023-04-26T03:54:08.543Z,8.12
2023-04-26T03:55:40.020Z,8.40
2023-04-26T03:57:12.451Z,8.03
2023-04-26T03:58:43.595Z,8.27
2023-04-26T04:00:15.220Z,7.89
2023-04-26T04:01:51.560Z,8.46
2023-04-26T04:03:23.687Z,8.71
2023-04-26T04:04:55.546Z,8.60
2023-04-26T04:06:27.127Z,8.26
2023-04-26T04:08:03.760Z,8.28
2023-04-26T04:09:35.205Z,8.14
2023-04-26T04:11:06.448Z,8.56
2023-04-26T04:12:37.673Z,8.00
2023-04-26T04:14:09.286Z,8.58
2023-04-26T04:15:41.113Z,8.35
2023-04-26T04:17:12.504Z,8.37
2023-04-26T04:18:43.664Z,8.24
2023-04-26T04:20:15.300Z,8.46
2023-04-26T04:21:47.731Z,8.29
2023-04-26T04:23:19.221Z,8.65
2023-04-26T04:24:50.551Z,8.41
2023-04-26T04:26:21.874Z,8.51
2023-04-26T04:27:53.216Z,8.31
2023-04-26T04:29:24.586Z,8.50
2023-04-26T04:30:56.246Z,8.32
2023-04-26T04:32:27.900Z,8.26
2023-04-26T04:33:59.319Z,7.94
2023-04-26T04:35:30.755Z,8.41
2023-04-26T04:37:02.512Z,8.64
2023-04-26T04:38:33.936Z,9.15
2023-04-26T04:40:05.261Z,8.75
2023-04-26T04:41:36.628Z,8.88
2023-04-26T04:43:07.872Z,8.79
2023-04-26T04:44:39.567Z,8.80
2023-04-26T04:46:12.667Z,9.34
2023-04-26T04:47:44.423Z,9.57
2023-04-26T04:49:15.753Z,9.14
2023-04-26T04:50:47.370Z,9.39
2023-04-26T04:52:19.226Z,9.55
2023-04-26T04:53:50.451Z,9.20
2023-04-26T04:55:21.760Z,9.17
2023-04-26T04:56:53.182Z,9.21
2023-04-26T04:58:24.608Z,9.60
2023-04-26T04:59:55.908Z,9.46
2023-04-26T05:01:27.075Z,9.73
2023-04-26T05:02:58.783Z,9.88
2023-04-26T05:04:30.430Z,9.75
2023-04-26T05:06:02.119Z,10.10
2023-04-26T05:07:33.503Z,10.79
2023-04-26T05:09:04.876Z,10.49
2023-04-26T05:10:36.238Z,10.97
2023-04-26T05:12:07.922Z,10.86
2023-04-26T05:13:39.163Z,10.59
2023-04-26T05:15:15.701Z,10.65
2023-04-26T05:16:47.165Z,9.91
2023-04-26T05:18:18.724Z,10.78
2023-04-26T05:19:50.389Z,10.64
2023-04-26T05:21:21.714Z,10.35
2023-04-26T05:22:53.190Z,10.13
2023-04-26T05:24:24.552Z,11.04
2023-04-26T05:26:18.350Z,10.60
2023-04-26T05:27:50.041Z,11.43
2023-04-26T05:29:21.514Z,11.73
2023-04-26T05:30:52.709Z,11.10
2023-04-26T05:32:24.023Z,11.74
2023-04-26T05:33:55.303Z,11.31
2023-04-26T05:35:26.953Z,11.43
2023-04-26T05:37:03.353Z,11.95
2023-04-26T05:38:34.511Z,11.60
2023-04-26T05:40:05.829Z,12.10
2023-04-26T05:41:37.092Z,12.22
2023-04-26T05:43:08.371Z,12.26
2023-04-26T05:44:39.754Z,12.88
2023-04-26T05:46:11.624Z,12.43
2023-04-26T05:47:42.906Z,12.35
2023-04-26T05:49:14.069Z,12.42
2023-04-26T05:50:45.336Z,12.34
2023-04-26T05:52:16.965Z,13.13
2023-04-26T05:53:48.312Z,12.64
2023-04-26T05:55:19.564Z,12.86
2023-04-26T05:56:50.762Z,13.13
2023-04-26T05:58:22.193Z,12.97
2023-04-26T05:59:53.649Z,12.78
2023-04-26T06:01:24.989Z,13.36
2023-04-26T06:02:56.317Z,13.19
2023-04-26T06:04:28.034Z,13.04
2023-04-26T06:05:59.843Z,12.76
2023-04-26T06:07:31.446Z,12.77
2023-04-26T06:09:03.197Z,11.98
2023-04-26T06:10:34.801Z,12.58
2023-04-26T06:12:06.126Z,12.57
2023-04-26T06:13:37.711Z,12.04
2023-04-26T06:15:09.101Z,12.54
2023-04-26T06:16:42.995Z,11.99
2023-04-26T06:18:15.035Z,13.29
2023-04-26T06:19:46.335Z,12.19
2023-04-26T06:21:17.566Z,11.71
2023-04-26T06:22:48.755Z,12.12
2023-04-26T06:24:20.002Z,12.20
2023-04-26T06:25:51.344Z,12.28
2023-04-26T06:27:23.019Z,12.59
2023-04-26T06:28:54.481Z,12.15
2023-04-26T06:30:25.854Z,11.93
2023-04-26T06:31:57.903Z,11.98
2023-04-26T06:33:29.147Z,12.18
2023-04-26T06:35:00.405Z,11.43
2023-04-26T06:36:31.658Z,11.61
2023-04-26T06:38:02.808Z,11.60
2023-04-26T06:39:34.049Z,11.36
2023-04-26T06:41:05.219Z,11.27
2023-04-26T06:42:37.281Z,11.43
2023-04-26T06:44:08.455Z,11.27
2023-04-26T06:45:41.432Z,11.51
2023-04-26T06:47:13.671Z,11.47
2023-04-26T06:48:45.270Z,9.42
2023-04-26T06:50:16.444Z,9.47
2023-04-26T06:51:47.869Z,8.92
2023-04-26T06:53:20.232Z,9.57
2023-04-26T06:54:57.067Z,10.51
2023-04-26T06:56:29.003Z,9.66
2023-04-26T06:58:00.598Z,9.78
2023-04-26T06:59:31.937Z,9.77
2023-04-26T07:01:03.831Z,9.79
2023-04-26T07:02:35.278Z,9.84
2023-04-26T07:04:11.809Z,9.30
2023-04-26T07:05:43.374Z,9.10
2023-04-26T07:07:14.770Z,9.19
2023-04-26T07:08:46.123Z,8.64
2023-04-26T07:10:17.417Z,8.20
2023-04-26T07:11:53.834Z,9.05
2023-04-26T07:13:30.604Z,9.16
2023-04-26T07:15:01.982Z,8.27
2023-04-26T07:16:33.480Z,7.63
2023-04-26T07:18:05.004Z,7.37
2023-04-26T07:19:36.442Z,7.57
2023-04-26T07:21:07.641Z,7.89
2023-04-26T07:22:39.134Z,8.46
2023-04-26T07:24:10.498Z,7.53
2023-04-26T07:25:42.116Z,8.22
2023-04-26T07:27:13.664Z,8.40
2023-04-26T07:28:45.159Z,6.39
2023-04-26T07:30:16.415Z,5.51
2023-04-26T07:31:47.683Z,4.95
2023-04-26T07:33:19.018Z,5.26
2023-04-26T07:34:50.376Z,4.74
2023-04-26T07:36:23.096Z,4.10
2023-04-26T07:37:55.856Z,4.26
2023-04-26T07:39:27.309Z,4.41
2023-04-26T07:40:58.534Z,4.73
2023-04-26T07:42:29.807Z,5.23
2023-04-26T07:44:01.124Z,5.22
2023-04-26T07:45:32.676Z,4.29
2023-04-26T07:47:04.014Z,4.38
2023-04-26T07:48:35.284Z,4.63
2023-04-26T07:50:06.525Z,4.56
2023-04-26T07:51:38.054Z,4.48
2023-04-26T07:53:09.339Z,4.78
2023-04-26T07:54:40.792Z,4.35
2023-04-26T07:56:12.053Z,3.72
2023-04-26T07:57:43.297Z,3.54
2023-04-26T07:59:25.587Z,3.37
2023-04-26T08:00:56.989Z,3.34
2023-04-26T08:02:43.587Z,3.43
2023-04-26T08:04:16.324Z,3.69
2023-04-26T08:05:48.019Z,3.91
2023-04-26T08:07:19.625Z,3.47
2023-04-26T08:08:51.191Z,3.40
2023-04-26T08:10:22.442Z,3.53
2023-04-26T08:11:53.943Z,3.15
2023-04-26T08:13:28.576Z,2.99
2023-04-26T08:15:00.758Z,2.94
2023-04-26T08:16:32.216Z,3.18
2023-04-26T08:18:03.623Z,3.22
2023-04-26T08:19:34.963Z,3.54
2023-04-26T08:21:06.243Z,3.04
2023-04-26T08:22:37.592Z,2.92
2023-04-26T08:24:08.839Z,3.09
2023-04-26T08:25:40.276Z,3.04
2023-04-26T08:27:11.503Z,3.13
2023-04-26T08:28:43.149Z,3.43
2023-04-26T08:30:14.354Z,3.31
2023-04-26T08:31:45.617Z,3.22
2023-04-26T08:33:16.918Z,2.94
2023-04-26T08:34:48.284Z,3.12
2023-04-26T08:36:19.694Z,3.20
2023-04-26T08:37:51.090Z,3.12
2023-04-26T08:39:22.425Z,3.84
2023-04-26T08:40:53.927Z,3.26
2023-04-26T08:42:25.361Z,3.22
2023-04-26T08:43:56.658Z,2.81
2023-04-26T08:45:27.948Z,2.45
2023-04-26T08:46:59.283Z,2.68
2023-04-26T08:48:30.564Z,2.80
2023-04-26T08:50:06.851Z,2.60
2023-04-26T08:51:38.196Z,2.90
2023-04-26T08:53:09.492Z,3.03
2023-04-26T08:54:40.978Z,2.74
2023-04-26T08:56:12.239Z,2.61
2023-04-26T08:57:43.716Z,2.67
2023-04-26T08:59:15.207Z,2.53
2023-04-26T09:00:46.557Z,2.41
2023-04-26T09:02:17.993Z,2.21
2023-04-26T09:03:49.672Z,2.53
2023-04-26T09:05:21.041Z,2.46
2023-04-26T09:06:52.573Z,2.27
2023-04-26T09:08:23.878Z,2.39
2023-04-26T09:09:55.178Z,2.24
2023-04-26T09:11:26.769Z,2.10
2023-04-26T09:12:58.088Z,2.07
2023-04-26T09:14:29.373Z,2.34
2023-04-26T09:16:02.721Z,2.28
2023-04-26T09:17:36.242Z,2.42
2023-04-26T09:19:07.718Z,2.42
2023-04-26T09:20:39.336Z,2.35
2023-04-26T09:22:10.641Z,2.33
2023-04-26T09:23:42.041Z,2.32
2023-04-26T09:25:13.240Z,2.29
2023-04-26T09:26:44.492Z,2.33
2023-04-26T09:28:16.011Z,2.45
2023-04-26T09:29:47.311Z,2.81
2023-04-26T09:31:18.753Z,3.15
2023-04-26T09:32:50.135Z,3.76
2023-04-26T09:34:26.504Z,3.06
2023-04-26T09:36:07.816Z,3.18
2023-04-26T09:37:47.625Z,2.72
2023-04-26T09:39:28.588Z,2.99
2023-04-26T09:40:59.941Z,3.06
2023-04-26T09:42:31.355Z,2.85
2023-04-26T09:44:02.911Z,2.95
2023-04-26T09:45:34.171Z,3.26
2023-04-26T09:47:05.558Z,2.89
2023-04-26T09:48:37.011Z,2.81
2023-04-26T09:50:08.597Z,2.74
2023-04-26T09:51:39.867Z,2.83
2023-04-26T09:53:11.251Z,2.81
2023-04-26T09:54:42.673Z,2.94
2023-04-26T09:56:14.029Z,3.12
2023-04-26T09:57:45.535Z,2.88
2023-04-26T09:59:16.740Z,3.08
2023-04-26T10:00:48.049Z,2.90
2023-04-26T10:02:19.325Z,2.86
2023-04-26T10:03:50.731Z,2.93
2023-04-26T10:05:22.140Z,2.79
2023-04-26T10:06:53.639Z,2.81
2023-04-26T10:08:24.947Z,2.82
2023-04-26T10:09:56.194Z,3.03
2023-04-26T10:11:27.488Z,3.13
2023-04-26T10:12:59.016Z,3.19
2023-04-26T10:14:30.618Z,2.84
2023-04-26T10:16:02.175Z,3.06
2023-04-26T10:17:33.779Z,3.30
2023-04-26T10:19:05.040Z,2.80
2023-04-26T10:20:36.252Z,2.72
2023-04-26T10:22:07.472Z,3.22
2023-04-26T10:23:38.842Z,3.21
2023-04-26T10:25:10.290Z,3.20
2023-04-26T10:26:41.522Z,2.83
2023-04-26T10:28:12.993Z,3.24
2023-04-26T10:29:44.244Z,3.29
2023-04-26T10:31:15.734Z,3.23
2023-04-26T10:32:47.060Z,3.21
2023-04-26T10:34:18.442Z,3.16
2023-04-26T10:35:49.846Z,2.90
2023-04-26T10:37:21.166Z,2.98
2023-04-26T10:38:52.695Z,3.10
2023-04-26T10:40:24.140Z,3.23
2023-04-26T10:41:55.544Z,3.22
2023-04-26T10:43:26.804Z,3.27
2023-04-26T10:44:58.235Z,3.32
2023-04-26T10:46:29.809Z,3.31
2023-04-26T10:48:01.471Z,3.10
2023-04-26T10:49:32.835Z,2.89
2023-04-26T10:51:04.540Z,3.25
2023-04-26T10:52:35.834Z,3.23
2023-04-26T10:54:07.143Z,3.11
2023-04-26T10:55:38.441Z,2.53
2023-04-26T10:57:09.799Z,3.18
2023-04-26T10:58:41.122Z,3.09
2023-04-26T11:01:52.472Z,3.70
2023-04-26T11:03:24.406Z,3.16
2023-04-26T11:04:55.981Z,3.05
2023-04-26T11:06:27.607Z,3.23
2023-04-26T11:07:58.947Z,3.50
2023-04-26T11:09:30.398Z,3.52
2023-04-26T11:11:01.844Z,3.53
2023-04-26T11:12:33.489Z,3.93
2023-04-26T11:14:04.999Z,3.80
2023-04-26T11:15:36.467Z,3.65
2023-04-26T11:17:07.761Z,4.08
2023-04-26T11:18:39.144Z,4.05
2023-04-26T11:20:10.511Z,3.86
2023-04-26T11:21:41.768Z,3.71
2023-04-26T11:23:13.075Z,3.77
2023-04-26T11:24:44.369Z,4.42
2023-04-26T11:26:15.682Z,4.16
2023-04-26T11:27:46.969Z,4.24
2023-04-26T11:29:18.352Z,4.10
2023-04-26T11:30:50.065Z,4.09
2023-04-26T11:32:21.435Z,4.11
2023-04-26T11:33:52.739Z,3.97
2023-04-26T11:35:43.957Z,4.08
2023-04-26T11:37:15.562Z,4.34
2023-04-26T11:38:47.183Z,4.31
2023-04-26T11:40:34.732Z,3.88
2023-04-26T11:42:10.488Z,4.15
2023-04-26T11:43:42.180Z,3.96
2023-04-26T11:45:14.014Z,3.96
2023-04-26T11:46:45.316Z,4.17
2023-04-26T11:48:16.963Z,3.87
2023-04-26T11:49:48.340Z,4.00
2023-04-26T11:51:19.684Z,3.82
2023-04-26T11:52:50.966Z,3.93
2023-04-26T11:54:22.305Z,3.92
2023-04-26T11:55:53.832Z,3.77
2023-04-26T11:57:25.330Z,4.05
2023-04-26T11:58:56.921Z,3.94
2023-04-26T12:00:29.143Z,4.20
2023-04-26T12:02:00.793Z,4.42
2023-04-26T12:03:32.228Z,4.47
2023-04-26T12:05:03.802Z,3.93
2023-04-26T12:06:35.452Z,4.17
2023-04-26T12:08:06.980Z,3.87
2023-04-26T12:09:38.308Z,3.86
2023-04-26T12:11:09.630Z,3.82
2023-04-26T12:12:40.900Z,4.02
2023-04-26T12:14:12.147Z,3.34
2023-04-26T12:15:43.572Z,3.50
2023-04-26T12:17:14.974Z,3.34
2023-04-26T12:18:46.362Z,3.36
2023-04-26T12:20:17.650Z,3.12
2023-04-26T12:21:49.100Z,3.45
2023-04-26T12:23:20.622Z,3.30
2023-04-26T12:24:51.982Z,3.39
2023-04-26T12:26:23.324Z,3.05
2023-04-26T12:27:54.627Z,3.16
2023-04-26T12:29:25.986Z,3.09
2023-04-26T12:30:57.369Z,3.31
2023-04-26T12:32:29.007Z,2.98
2023-04-26T12:34:00.424Z,3.08
2023-04-26T12:35:31.815Z,3.09
2023-04-26T12:37:03.301Z,3.11
2023-04-26T12:38:34.887Z,2.80
2023-04-26T12:40:06.170Z,3.00
2023-04-26T12:41:37.661Z,2.94
2023-04-26T12:43:08.915Z,2.40
2023-04-26T12:44:40.361Z,2.72
2023-04-26T12:46:11.739Z,2.70
2023-04-26T12:47:43.170Z,2.67
2023-04-26T12:49:14.614Z,2.86
2023-04-26T12:50:46.062Z,2.77
2023-04-26T12:52:17.963Z,2.65
2023-04-26T12:53:49.440Z,2.85
2023-04-26T12:55:21.026Z,2.66
2023-04-26T12:56:52.446Z,2.64
2023-04-26T12:58:24.065Z,2.81
2023-04-26T12:59:55.641Z,3.20
2023-04-26T13:01:26.964Z,2.37
2023-04-26T13:02:58.988Z,2.34
2023-04-26T13:04:30.831Z,2.33
2023-04-26T13:06:02.452Z,2.54
2023-04-26T13:07:33.912Z,2.67
2023-04-26T13:09:10.317Z,2.56
2023-04-26T13:10:41.889Z,2.73
2023-04-26T13:12:40.601Z,2.33
2023-04-26T13:14:23.207Z,2.38
2023-04-26T13:15:55.813Z,2.56
2023-04-26T13:17:27.265Z,2.76
2023-04-26T13:18:59.131Z,2.41
2023-04-26T13:20:40.648Z,2.58
2023-04-26T13:22:27.206Z,2.58
2023-04-26T13:23:58.616Z,2.52
2023-04-26T13:25:29.985Z,2.30
2023-04-26T13:27:11.455Z,2.57
2023-04-26T13:28:42.976Z,2.35
2023-04-26T13:30:14.386Z,2.34
2023-04-26T13:31:45.819Z,2.26
2023-04-26T13:33:17.458Z,2.26
2023-04-26T13:34:49.297Z,2.68
2023-04-26T13:36:20.759Z,2.56
2023-04-26T13:37:52.184Z,2.32
2023-04-26T13:39:23.723Z,2.49
2023-04-26T13:40:55.163Z,2.59
2023-04-26T13:42:26.837Z,2.52
2023-04-26T13:43:58.404Z,2.56
2023-04-26T13:45:41.886Z,2.33
2023-04-26T13:47:18.644Z,1.84
2023-04-26T13:48:55.172Z,2.24
2023-04-26T13:50:26.554Z,2.32
2023-04-26T13:51:57.947Z,2.37
2023-04-26T13:53:29.299Z,2.05
2023-04-26T13:55:00.896Z,2.34
2023-04-26T13:56:32.351Z,2.33
2023-04-26T13:58:03.788Z,2.43
2023-04-26T13:59:35.174Z,2.45
2023-04-26T14:01:06.711Z,2.48
2023-04-26T14:02:38.184Z,2.32
2023-04-26T14:04:09.805Z,2.39
2023-04-26T14:05:41.397Z,2.27
2023-04-26T14:07:12.790Z,2.49
2023-04-26T14:08:44.217Z,2.47
2023-04-26T14:10:15.537Z,2.26
2023-04-26T14:11:49.465Z,2.60
2023-04-26T14:13:25.615Z,2.63
2023-04-26T14:14:56.966Z,2.54
2023-04-26T14:16:29.533Z,2.38
2023-04-26T14:18:01.071Z,2.28
2023-04-26T14:19:32.530Z,2.21
2023-04-26T14:21:04.162Z,2.19
2023-04-26T14:22:35.525Z,2.52
2023-04-26T14:24:06.918Z,2.46
2023-04-26T14:25:38.342Z,2.53
2023-04-26T14:27:19.807Z,2.57
2023-04-26T14:28:51.293Z,2.35
2023-04-26T14:30:32.739Z,2.67
2023-04-26T14:32:04.152Z,2.69
2023-04-26T14:33:35.617Z,2.71
2023-04-26T14:35:07.050Z,2.49
2023-04-26T14:36:38.676Z,2.66
2023-04-26T14:38:10.147Z,2.63
2023-04-26T14:39:41.602Z,2.44
2023-04-26T14:41:13.276Z,2.45
2023-04-26T14:42:44.662Z,2.19
2023-04-26T14:44:16.063Z,2.25
2023-04-26T14:46:15.744Z,2.42
2023-04-26T14:47:54.194Z,2.70
2023-04-26T14:49:25.574Z,2.34
2023-04-26T14:51:06.957Z,2.75
2023-04-26T14:52:49.893Z,2.28
2023-04-26T14:54:31.420Z,2.54
2023-04-26T14:56:02.704Z,2.56
2023-04-26T14:57:34.171Z,2.48
2023-04-26T14:59:05.514Z,2.55
2023-04-26T15:00:41.947Z,2.84
2023-04-26T15:02:33.553Z,2.87
2023-04-26T15:04:15.230Z,2.98
2023-04-26T15:05:47.052Z,2.81
2023-04-26T15:07:32.581Z,2.79
2023-04-26T15:09:04.586Z,2.82
2023-04-26T15:10:36.381Z,2.78
2023-04-26T15:12:07.865Z,2.91
2023-04-26T15:13:39.275Z,2.72
2023-04-26T15:15:15.752Z,2.77
2023-04-26T15:16:47.802Z,2.66
2023-04-26T15:18:19.776Z,2.70
2023-04-26T15:19:51.140Z,2.45
2023-04-26T15:21:22.543Z,2.69
2023-04-26T15:22:54.081Z,2.54
2023-04-26T15:24:25.553Z,2.72
2023-04-26T15:25:57.018Z,2.86
2023-04-26T15:27:42.382Z,2.78
2023-04-26T15:29:32.553Z,2.82
2023-04-26T15:31:09.765Z,2.59
2023-04-26T15:32:41.261Z,2.69
2023-04-26T15:34:18.389Z,2.80
2023-04-26T15:38:39.848Z,2.72
2023-04-26T15:40:11.286Z,2.80
2023-04-26T15:41:52.875Z,2.64
2023-04-26T15:43:24.375Z,2.56
2023-04-26T15:44:55.843Z,2.68
2023-04-26T15:46:27.315Z,2.75
2023-04-26T15:47:59.110Z,2.53
2023-04-26T15:49:30.609Z,2.56
2023-04-26T15:51:02.105Z,2.71
2023-04-26T15:52:33.391Z,2.52
2023-04-26T15:54:05.553Z,2.44
2023-04-26T15:55:37.379Z,2.56
2023-04-26T15:57:08.991Z,2.50
2023-04-26T15:58:41.700Z,2.77
2023-04-26T16:00:13.741Z,2.48
2023-04-26T16:01:45.654Z,2.87
2023-04-26T16:03:19.666Z,3.29
2023-04-26T16:04:51.528Z,2.73
2023-04-26T16:06:23.238Z,2.57
2023-04-26T16:07:54.592Z,2.83
2023-04-26T16:09:26.239Z,2.59
2023-04-26T16:10:57.878Z,2.49
2023-04-26T16:12:29.355Z,3.00
2023-04-26T16:14:01.154Z,3.18
2023-04-26T16:15:32.576Z,3.51
2023-04-26T16:17:04.133Z,3.80
2023-04-26T16:18:35.924Z,3.21
2023-04-26T16:20:07.340Z,3.52
2023-04-26T16:21:38.638Z,3.32
2023-04-26T16:23:10.008Z,2.72
2023-04-26T16:24:41.567Z,2.75
2023-04-26T16:26:13.109Z,3.09
2023-04-26T16:27:44.825Z,2.94
2023-04-26T16:29:16.420Z,2.82
2023-04-26T16:30:47.812Z,2.76
2023-04-26T16:32:19.189Z,2.73
2023-04-26T16:33:50.596Z,2.80
2023-04-26T16:35:21.996Z,3.22
2023-04-26T16:36:53.478Z,3.27
2023-04-26T16:38:24.986Z,2.79
2023-04-26T16:39:56.619Z,2.74
2023-04-26T16:41:28.175Z,2.59
2023-04-26T16:42:59.767Z,2.79
2023-04-26T16:44:31.329Z,3.00
2023-04-26T16:46:02.707Z,2.77
2023-04-26T16:47:34.513Z,2.83
2023-04-26T16:49:05.832Z,2.78
2023-04-26T16:50:37.266Z,2.63
2023-04-26T16:52:18.644Z,2.76
2023-04-26T16:53:50.280Z,2.68
2023-04-26T16:55:23.298Z,2.89
2023-04-26T16:56:54.822Z,2.69
2023-04-26T16:58:26.258Z,2.58
2023-04-26T16:59:58.246Z,2.71
2023-04-26T17:01:29.781Z,2.84
2023-04-26T17:03:01.440Z,2.93
2023-04-26T17:04:33.337Z,2.86
2023-04-26T17:06:04.765Z,2.78
2023-04-26T17:07:36.753Z,2.84
2023-04-26T17:09:08.260Z,2.52
2023-04-26T17:10:39.582Z,2.62
2023-04-26T17:12:10.878Z,2.95
2023-04-26T17:13:42.300Z,2.79
2023-04-26T17:15:13.649Z,2.60
2023-04-26T17:16:45.135Z,2.48
2023-04-26T17:18:17.013Z,2.50
2023-04-26T17:19:48.568Z,2.51
2023-04-26T17:21:31.476Z,2.66
2023-04-26T17:23:09.137Z,2.77
2023-04-26T17:26:55.901Z,3.06
2023-04-26T17:28:43.029Z,2.77
2023-04-26T17:30:14.629Z,3.35
2023-04-26T17:31:46.258Z,2.86
2023-04-26T17:33:18.011Z,2.55
2023-04-26T17:34:49.648Z,2.91
2023-04-26T17:36:32.181Z,2.99
2023-04-26T17:38:51.574Z,2.68
2023-04-26T17:40:23.522Z,2.68
2023-04-26T17:41:55.990Z,3.11
2023-04-26T17:43:27.415Z,2.93
2023-04-26T17:45:00.162Z,2.80
2023-04-26T17:46:33.926Z,3.27
2023-04-26T17:48:06.228Z,2.87
2023-04-26T17:49:38.240Z,2.92
2023-04-26T17:51:09.885Z,2.67
2023-04-26T17:52:52.256Z,2.89
2023-04-26T17:54:23.648Z,2.82
2023-04-26T17:56:23.361Z,2.66
2023-04-26T17:57:54.742Z,2.65
2023-04-26T17:59:26.310Z,2.98
2023-04-26T18:00:58.355Z,3.12
2023-04-26T18:02:40.441Z,3.08
2023-04-26T18:04:12.200Z,4.49
2023-04-26T18:05:45.254Z,5.56
2023-04-26T18:07:16.800Z,4.27
2023-04-26T18:08:49.053Z,3.77
2023-04-26T18:10:20.947Z,3.43
2023-04-26T18:11:57.740Z,3.24
2023-04-26T18:13:34.110Z,3.33
2023-04-26T18:15:05.677Z,3.33
2023-04-26T18:16:43.728Z,3.31
2023-04-26T18:18:22.054Z,2.98
2023-04-26T18:22:11.617Z,3.27
2023-04-26T18:23:50.086Z,3.11
2023-04-26T18:25:23.842Z,3.26
2023-04-26T18:26:56.103Z,3.04
2023-04-26T18:28:32.537Z,3.13
2023-04-26T18:30:33.538Z,3.77
2023-04-26T18:32:22.784Z,3.48
2023-04-26T18:34:15.567Z,3.38
2023-04-26T18:35:52.470Z,3.21
2023-04-26T18:37:46.273Z,3.37
2023-04-26T18:39:18.150Z,3.41
2023-04-26T18:41:01.647Z,3.58
2023-04-26T18:42:50.429Z,3.62
2023-04-26T18:44:22.060Z,3.53
2023-04-26T18:45:53.807Z,3.65
2023-04-26T18:47:30.602Z,3.88
2023-04-26T18:49:02.107Z,3.60
2023-04-26T18:50:33.947Z,4.29
2023-04-26T18:52:10.721Z,4.31
2023-04-26T18:53:42.641Z,3.80
2023-04-26T18:55:14.596Z,4.18
2023-04-26T18:56:56.689Z,3.76
2023-04-26T18:58:28.506Z,3.68
2023-04-26T19:00:26.774Z,3.86
2023-04-26T19:02:43.176Z,4.00
2023-04-26T19:04:15.451Z,3.83
2023-04-26T19:05:46.943Z,4.27
2023-04-26T19:07:18.554Z,3.87
2023-04-26T19:08:50.107Z,3.71
2023-04-26T19:10:21.517Z,3.92
2023-04-26T19:11:53.158Z,3.87
2023-04-26T19:13:24.746Z,3.72
2023-04-26T19:15:00.760Z,3.69
2023-04-26T19:16:33.175Z,3.88
2023-04-26T19:18:06.771Z,4.14
2023-04-26T19:19:38.672Z,3.87
2023-04-26T19:21:10.718Z,3.94
2023-04-26T19:22:44.035Z,3.86
2023-04-26T19:24:15.957Z,4.15
2023-04-26T19:25:52.849Z,4.13
2023-04-26T19:27:24.452Z,3.87
2023-04-26T19:28:56.470Z,4.20
2023-04-26T19:30:28.349Z,4.35
2023-04-26T19:32:00.107Z,4.25
2023-04-26T19:33:52.736Z,4.06
2023-04-26T19:35:24.710Z,3.79
2023-04-26T19:36:56.896Z,3.74
2023-04-26T19:38:28.599Z,3.85
2023-04-26T19:40:00.281Z,4.26
2023-04-26T19:41:31.959Z,4.02
2023-04-26T19:43:03.545Z,4.04
2023-04-26T19:44:35.148Z,4.08
2023-04-26T19:46:06.601Z,4.45
2023-04-26T19:47:54.108Z,4.12
2023-04-26T19:49:42.025Z,4.44
2023-04-26T19:51:14.420Z,4.16
2023-04-26T19:52:46.275Z,4.34
2023-04-26T19:54:28.870Z,4.69
2023-04-26T19:56:00.347Z,4.67
2023-04-26T19:57:41.702Z,4.38
2023-04-26T19:59:12.927Z,4.13
2023-04-26T20:00:54.835Z,4.79
2023-04-26T20:02:26.523Z,4.40
2023-04-26T20:04:03.817Z,4.05
2023-04-26T20:05:35.535Z,4.51
2023-04-26T20:07:07.005Z,4.00
2023-04-26T20:08:38.344Z,4.30
2023-04-26T20:10:10.044Z,4.59
2023-04-26T20:11:51.947Z,4.33
2023-04-26T20:13:34.037Z,4.47
2023-04-26T20:15:10.429Z,4.33
2023-04-26T20:16:56.938Z,4.66
2023-04-26T20:18:29.218Z,4.59
2023-04-26T20:20:00.969Z,4.73
2023-04-26T20:21:32.510Z,4.86
2023-04-26T20:23:26.082Z,4.68
2023-04-26T20:25:15.920Z,4.59
2023-04-26T20:26:53.245Z,5.26
2023-04-26T20:28:24.740Z,5.25
2023-04-26T20:29:56.577Z,4.94
2023-04-26T20:31:28.040Z,4.73
2023-04-26T20:33:09.440Z,5.54
2023-04-26T20:34:41.277Z,6.16
2023-04-26T20:36:12.829Z,6.42
2023-04-26T20:38:08.239Z,5.89
2023-04-26T20:39:39.822Z,5.13
2023-04-26T20:41:11.343Z,5.19
2023-04-26T20:42:42.614Z,4.86